createdAt,value
2024-02-03T00:00:07.184Z,7.78
2024-02-03T00:02:34.170Z,7.89
2024-02-03T00:05:00.698Z,7.77
2024-02-03T00:07:27.726Z,7.89
2024-02-03T00:09:54.510Z,7.69
2024-02-03T00:12:27.182Z,7.72
2024-02-03T00:14:53.958Z,7.56
2024-02-03T00:17:20.594Z,7.78
2024-02-03T00:19:47.409Z,7.74
2024-02-03T00:22:14.179Z,7.67
2024-02-03T00:24:40.876Z,7.91
2024-02-03T00:27:07.794Z,7.89
2024-02-03T00:29:35.462Z,7.90
2024-02-03T00:32:02.128Z,7.79
2024-02-03T00:34:28.857Z,8.01
2024-02-03T00:36:55.449Z,7.91
2024-02-03T00:39:22.052Z,8.07
2024-02-03T00:41:48.668Z,8.05
2024-02-03T00:44:16.595Z,8.12
2024-02-03T00:46:43.404Z,8.17
2024-02-03T00:49:10.033Z,8.14
2024-02-03T00:51:36.626Z,8.00
2024-02-03T00:54:03.244Z,8.04
2024-02-03T00:56:29.909Z,8.02
2024-02-03T00:58:56.394Z,7.91
2024-02-03T01:01:23.020Z,7.71
2024-02-03T01:03:49.861Z,7.90
2024-02-03T01:06:16.588Z,7.79
2024-02-03T01:08:43.176Z,8.02
2024-02-03T01:11:09.774Z,7.82
2024-02-03T01:13:36.379Z,8.14
2024-02-03T01:16:03.211Z,7.87
2024-02-03T01:18:29.846Z,8.00
2024-02-03T01:20:56.597Z,7.61
2024-02-03T01:23:23.113Z,7.83
2024-02-03T01:25:50.743Z,7.65
2024-02-03T01:28:17.302Z,7.65
2024-02-03T01:30:44.039Z,7.88
2024-02-03T01:33:10.654Z,7.67
2024-02-03T01:35:37.274Z,7.98
2024-02-03T01:38:03.843Z,7.85
2024-02-03T01:40:30.502Z,7.82
2024-02-03T01:43:03.423Z,7.37
2024-02-03T01:45:30.268Z,7.54
2024-02-03T01:47:58.180Z,7.48
2024-02-03T01:50:26.821Z,7.67
2024-02-03T01:52:54.148Z,7.78
2024-02-03T01:55:21.371Z,7.75
2024-02-03T01:57:49.534Z,8.00
2024-02-03T02:00:16.938Z,8.00
2024-02-03T02:02:43.662Z,8.01
2024-02-03T02:05:10.517Z,7.83
2024-02-03T02:07:46.023Z,7.49
2024-02-03T02:10:13.981Z,7.77
2024-02-03T02:12:40.708Z,7.87
2024-02-03T02:15:07.582Z,7.99
2024-02-03T02:17:34.639Z,7.66
2024-02-03T02:20:08.320Z,7.93
2024-02-03T02:22:35.548Z,7.92
2024-02-03T02:25:02.453Z,7.71
2024-02-03T02:27:28.981Z,8.06
2024-02-03T02:29:55.514Z,7.98
2024-02-03T02:32:22.006Z,8.24
2024-02-03T02:34:48.765Z,8.11
2024-02-03T02:37:15.855Z,7.65
2024-02-03T02:39:42.381Z,8.10
2024-02-03T02:42:09.904Z,8.23
2024-02-03T02:44:36.464Z,8.05
2024-02-03T02:47:02.999Z,8.18
2024-02-03T02:49:29.827Z,7.73
2024-02-03T02:51:56.464Z,7.72
2024-02-03T02:54:23.068Z,8.27
2024-02-03T02:56:49.544Z,8.21
2024-02-03T02:59:17.700Z,8.11
2024-02-03T03:01:44.548Z,8.11
2024-02-03T03:04:11.292Z,8.21
2024-02-03T03:06:37.943Z,8.38
2024-02-03T03:09:26.785Z,8.32
2024-02-03T03:11:53.845Z,8.40
2024-02-03T03:14:20.486Z,8.20
2024-02-03T03:16:47.013Z,8.20
2024-02-03T03:19:13.585Z,8.25
2024-02-03T03:21:40.170Z,8.01
2024-02-03T03:24:07.142Z,8.23
2024-02-03T03:26:33.793Z,8.21
2024-02-03T03:29:00.341Z,8.00
2024-02-03T03:31:26.821Z,8.22
2024-02-03T03:33:53.426Z,8.08
2024-02-03T03:36:20.058Z,8.07
2024-02-03T03:38:52.624Z,8.15
2024-02-03T03:41:19.157Z,8.15
2024-02-03T03:43:46.935Z,8.11
2024-02-03T03:46:13.447Z,7.57
2024-02-03T03:48:40.148Z,8.06
2024-02-03T03:51:15.361Z,8.07
2024-02-03T03:53:41.953Z,8.09
2024-02-03T03:56:08.467Z,8.01
2024-02-03T03:58:34.935Z,8.13
2024-02-03T04:01:01.590Z,7.92
2024-02-03T04:03:28.125Z,7.80
2024-02-03T04:05:54.994Z,7.99
2024-02-03T04:11:16.855Z,7.39
2024-02-03T04:13:43.332Z,7.45
2024-02-03T04:16:09.910Z,7.54
2024-02-03T04:18:41.644Z,6.99
2024-02-03T04:21:08.294Z,7.66
2024-02-03T04:23:38.817Z,7.28
2024-02-03T04:26:05.633Z,7.11
2024-02-03T04:28:32.177Z,7.18
2024-02-03T04:30:59.883Z,7.52
2024-02-03T04:33:26.645Z,7.27
2024-02-03T04:35:53.200Z,7.40
2024-02-03T04:38:19.715Z,7.78
2024-02-03T04:40:46.233Z,7.25
2024-02-03T04:43:12.706Z,7.89
2024-02-03T04:45:39.249Z,7.44
2024-02-03T04:48:06.389Z,7.61
2024-02-03T04:50:34.398Z,8.07
2024-02-03T04:53:01.007Z,8.04
2024-02-03T04:55:27.444Z,7.81
2024-02-03T04:57:54.032Z,8.00
2024-02-03T05:00:20.752Z,8.10
2024-02-03T05:02:47.315Z,7.50
2024-02-03T05:05:13.818Z,7.97
2024-02-03T05:07:40.304Z,8.17
2024-02-03T05:10:07.176Z,7.97
2024-02-03T05:15:05.849Z,7.89
2024-02-03T05:17:33.464Z,8.23
2024-02-03T05:19:59.972Z,8.18
2024-02-03T05:22:26.464Z,7.99
2024-02-03T05:24:53.138Z,7.72
2024-02-03T05:27:20.565Z,7.81
2024-02-03T05:29:47.182Z,8.07
2024-02-03T05:32:14.276Z,7.81
2024-02-03T05:34:40.966Z,7.92
2024-02-03T05:37:07.614Z,8.25
2024-02-03T05:39:34.245Z,8.23
2024-02-03T05:42:00.767Z,8.46
2024-02-03T05:44:27.217Z,8.37
2024-02-03T05:46:53.676Z,8.17
2024-02-03T05:49:20.277Z,7.82
2024-02-03T05:51:46.943Z,7.70
2024-02-03T05:54:13.551Z,8.64
2024-02-03T05:56:40.041Z,8.80
2024-02-03T05:59:21.733Z,8.98
2024-02-03T06:01:53.333Z,8.07
2024-02-03T06:04:19.898Z,7.51
2024-02-03T06:06:46.652Z,8.29
2024-02-03T06:09:20.193Z,8.55
2024-02-03T06:11:46.705Z,8.88
2024-02-03T06:14:13.185Z,8.46
2024-02-03T06:16:39.658Z,8.46
2024-02-03T06:19:06.298Z,8.69
2024-02-03T06:21:32.919Z,9.19
2024-02-03T06:23:59.434Z,8.96
2024-02-03T06:26:31.174Z,8.89
2024-02-03T06:28:58.175Z,8.86
2024-02-03T06:31:24.715Z,9.32
2024-02-03T06:33:51.376Z,9.09
2024-02-03T06:36:17.926Z,9.27
2024-02-03T06:38:44.741Z,8.04
2024-02-03T06:41:11.614Z,8.68
2024-02-03T06:43:41.488Z,8.06
2024-02-03T06:46:12.770Z,8.53
2024-02-03T06:48:39.351Z,8.95
2024-02-03T06:51:11.762Z,8.57
2024-02-03T06:53:47.622Z,8.82
2024-02-03T06:58:53.151Z,8.06
2024-02-03T07:01:19.736Z,8.00
2024-02-03T07:03:46.463Z,8.69
2024-02-03T07:06:13.303Z,9.07
2024-02-03T07:08:39.816Z,8.64
2024-02-03T07:11:07.078Z,8.71
2024-02-03T07:13:34.132Z,8.81
2024-02-03T07:16:00.708Z,8.41
2024-02-03T07:18:27.374Z,8.44
2024-02-03T07:20:54.388Z,8.43
2024-02-03T07:23:21.414Z,8.54
2024-02-03T07:25:48.214Z,8.88
2024-02-03T07:28:14.784Z,8.47
2024-02-03T07:30:41.380Z,9.50
2024-02-03T07:33:09.436Z,9.83
2024-02-03T07:35:36.276Z,8.98
2024-02-03T07:38:03.237Z,8.56
2024-02-03T07:40:29.772Z,8.81
2024-02-03T07:42:56.458Z,9.26
2024-02-03T07:45:23.701Z,9.48
2024-02-03T07:47:50.507Z,9.20
2024-02-03T07:50:17.133Z,9.85
2024-02-03T07:52:43.626Z,9.42
2024-02-03T07:55:10.083Z,9.35
2024-02-03T07:57:36.706Z,9.74
2024-02-03T08:00:03.648Z,9.46
2024-02-03T08:02:30.182Z,9.35
2024-02-03T08:04:56.987Z,9.74
2024-02-03T08:07:23.913Z,9.63
2024-02-03T08:09:50.649Z,9.47
2024-02-03T08:12:17.162Z,10.36
2024-02-03T08:14:43.726Z,10.83
2024-02-03T08:17:10.277Z,10.39
2024-02-03T08:19:40.643Z,10.56
2024-02-03T08:22:07.234Z,10.43
2024-02-03T08:24:33.778Z,10.09
2024-02-03T08:27:00.244Z,10.43
2024-02-03T08:29:26.704Z,10.12
2024-02-03T08:31:53.186Z,9.38
2024-02-03T08:34:19.872Z,9.90
2024-02-03T08:36:46.831Z,10.11
2024-02-03T08:39:46.578Z,10.04
2024-02-03T08:42:00.566Z,10.04
2024-02-03T08:44:27.054Z,9.87
2024-02-03T08:46:53.592Z,10.45
2024-02-03T08:49:20.299Z,10.52
2024-02-03T08:51:46.972Z,10.74
2024-02-03T08:54:13.465Z,10.51
2024-02-03T08:56:40.037Z,10.90
2024-02-03T08:59:06.547Z,10.55
2024-02-03T09:01:33.360Z,10.68
2024-02-03T09:03:59.996Z,10.92
2024-02-03T09:06:26.630Z,10.37
2024-02-03T09:09:08.562Z,10.74
2024-02-03T09:11:35.024Z,10.99
2024-02-03T09:14:04.425Z,10.98
2024-02-03T09:16:31.209Z,11.09
2024-02-03T09:18:57.731Z,10.72
2024-02-03T09:21:24.349Z,10.40
2024-02-03T09:23:50.900Z,10.97
2024-02-03T09:26:17.899Z,10.83
2024-02-03T09:28:44.377Z,10.73
2024-02-03T09:31:18.368Z,10.80
2024-02-03T09:33:45.253Z,11.11
2024-02-03T09:36:11.885Z,10.94
2024-02-03T09:38:44.898Z,11.00
2024-02-03T09:41:11.707Z,10.53
2024-02-03T09:43:38.276Z,10.39
2024-02-03T09:46:05.546Z,10.58
2024-02-03T09:48:32.167Z,10.51
2024-02-03T09:51:00.919Z,10.67
2024-02-03T09:53:27.776Z,10.49
2024-02-03T09:55:56.368Z,11.12
2024-02-03T09:58:24.846Z,10.72
2024-02-03T10:00:54.875Z,10.39
2024-02-03T10:03:22.133Z,10.91
2024-02-03T10:06:02.929Z,10.90
2024-02-03T10:08:30.343Z,11.08
2024-02-03T10:13:34.308Z,11.39
2024-02-03T10:16:02.792Z,11.04
2024-02-03T10:18:32.504Z,11.30
2024-02-03T10:21:04.195Z,11.06
2024-02-03T10:23:31.395Z,11.12
2024-02-03T10:26:02.111Z,11.46
2024-02-03T10:28:45.939Z,11.69
2024-02-03T10:31:21.741Z,11.86
2024-02-03T10:33:48.575Z,11.03
2024-02-03T10:36:15.284Z,11.28
2024-02-03T10:38:42.675Z,11.47
2024-02-03T10:41:12.274Z,11.40
2024-02-03T10:43:39.506Z,10.89
2024-02-03T10:46:07.112Z,10.81
2024-02-03T10:48:42.014Z,10.83
2024-02-03T10:51:19.275Z,10.79
2024-02-03T10:54:02.199Z,10.97
2024-02-03T10:56:31.555Z,10.69
2024-02-03T10:59:00.598Z,10.81
2024-02-03T11:01:35.409Z,11.08
2024-02-03T11:04:02.953Z,10.78
2024-02-03T11:06:31.609Z,11.13
2024-02-03T11:09:15.245Z,11.20
2024-02-03T11:11:44.127Z,11.10
2024-02-03T11:14:28.389Z,11.20
2024-02-03T11:17:02.822Z,11.37
2024-02-03T11:19:35.653Z,11.24
2024-02-03T11:22:04.486Z,11.02
2024-02-03T11:24:31.939Z,11.14
2024-02-03T11:27:08.664Z,11.19
2024-02-03T11:29:36.246Z,11.35
2024-02-03T11:32:04.978Z,11.26
2024-02-03T11:34:36.921Z,10.83
2024-02-03T11:37:04.766Z,11.06
2024-02-03T11:39:39.179Z,11.22
2024-02-03T11:42:10.412Z,11.27
2024-02-03T11:44:51.653Z,11.46
2024-02-03T11:47:20.823Z,11.35
2024-02-03T11:49:48.014Z,11.27
2024-02-03T11:52:14.661Z,10.83
2024-02-03T11:54:41.225Z,10.75
2024-02-03T11:57:08.751Z,10.77
2024-02-03T11:59:35.375Z,10.48
2024-02-03T12:02:01.938Z,10.29
2024-02-03T12:04:28.867Z,10.62
2024-02-03T12:06:57.838Z,10.13
2024-02-03T12:09:33.598Z,10.45
2024-02-03T12:12:00.615Z,10.64
2024-02-03T12:14:29.994Z,10.58
2024-02-03T12:16:58.787Z,10.57
2024-02-03T12:19:26.105Z,10.67
2024-02-03T12:21:52.983Z,10.57
2024-02-03T12:24:19.698Z,10.61
2024-02-03T12:26:46.247Z,10.72
2024-02-03T12:29:13.334Z,10.70
2024-02-03T12:31:40.186Z,10.67
2024-02-03T12:34:06.918Z,10.59
2024-02-03T12:36:33.674Z,10.66
2024-02-03T12:39:00.838Z,10.76
2024-02-03T12:41:27.527Z,10.72
2024-02-03T12:43:54.105Z,10.92
2024-02-03T12:46:22.943Z,11.22
2024-02-03T12:48:52.685Z,10.81
2024-02-03T12:51:19.933Z,10.90
2024-02-03T12:53:47.655Z,11.40
2024-02-03T12:56:14.647Z,10.96
2024-02-03T12:58:42.238Z,11.23
2024-02-03T13:01:09.686Z,11.14
2024-02-03T13:03:37.330Z,11.14
2024-02-03T13:06:04.610Z,11.27
2024-02-03T13:08:34.034Z,11.25
2024-02-03T13:11:01.200Z,11.42
2024-02-03T13:13:28.103Z,11.05
2024-02-03T13:15:54.932Z,11.04
2024-02-03T13:18:21.726Z,10.90
2024-02-03T13:21:12.601Z,11.03
2024-02-03T13:23:54.135Z,11.20
2024-02-03T13:26:22.969Z,11.15
2024-02-03T13:28:50.360Z,11.13
2024-02-03T13:31:17.351Z,11.14
2024-02-03T13:33:44.309Z,11.10
2024-02-03T13:36:11.285Z,11.04
2024-02-03T13:38:37.881Z,10.69
2024-02-03T13:41:08.614Z,10.64
2024-02-03T13:43:38.011Z,10.24
2024-02-03T13:46:04.778Z,10.42
2024-02-03T13:48:31.549Z,10.28
2024-02-03T13:50:58.215Z,10.41
2024-02-03T13:53:26.237Z,10.34
2024-02-03T13:55:54.041Z,10.35
2024-02-03T13:58:26.757Z,10.38
2024-02-03T14:00:53.649Z,10.66
2024-02-03T14:03:20.359Z,10.82
2024-02-03T14:05:47.051Z,10.61
2024-02-03T14:08:15.507Z,11.10
2024-02-03T14:10:42.685Z,11.02
2024-02-03T14:13:09.462Z,10.72
2024-02-03T14:15:36.116Z,10.98
2024-02-03T14:18:06.503Z,10.99
2024-02-03T14:20:33.770Z,11.46
2024-02-03T14:23:00.352Z,10.86
2024-02-03T14:25:26.972Z,10.92
2024-02-03T14:27:53.826Z,11.78
2024-02-03T14:30:20.289Z,11.42
2024-02-03T14:32:46.873Z,11.99
2024-02-03T14:35:13.731Z,11.65
2024-02-03T14:37:40.718Z,12.08
2024-02-03T14:40:07.797Z,11.81
2024-02-03T14:42:34.648Z,11.78
2024-02-03T14:45:01.116Z,12.35
2024-02-03T14:47:29.061Z,11.53
2024-02-03T14:49:56.796Z,11.70
2024-02-03T14:52:24.153Z,11.79
2024-02-03T14:54:51.346Z,11.84
2024-02-03T14:57:17.903Z,11.78
2024-02-03T14:59:44.448Z,11.59
2024-02-03T15:02:10.902Z,11.56
2024-02-03T15:04:37.414Z,11.43
2024-02-03T15:07:04.381Z,10.96
2024-02-03T15:09:30.950Z,11.09
2024-02-03T15:11:57.426Z,11.39
2024-02-03T15:14:32.722Z,11.52
2024-02-03T15:16:59.592Z,11.15
2024-02-03T15:19:26.185Z,11.63
2024-02-03T15:21:53.556Z,11.43
2024-02-03T15:24:20.468Z,12.03
2024-02-03T15:26:46.991Z,12.15
2024-02-03T15:29:13.550Z,11.99
2024-02-03T15:31:40.368Z,11.67
2024-02-03T15:34:07.263Z,12.04
2024-02-03T15:36:34.245Z,12.18
2024-02-03T15:39:01.109Z,12.25
2024-02-03T15:41:27.739Z,12.12
2024-02-03T15:43:54.751Z,11.81
2024-02-03T15:46:30.559Z,12.19
2024-02-03T15:49:04.077Z,11.91
2024-02-03T15:51:30.970Z,12.02
2024-02-03T15:53:57.614Z,12.03
2024-02-03T15:56:24.672Z,12.36
2024-02-03T15:58:51.742Z,11.99
2024-02-03T16:01:18.818Z,11.79
2024-02-03T16:03:45.808Z,11.34
2024-02-03T16:06:12.842Z,11.32
2024-02-03T16:08:39.786Z,11.78
2024-02-03T16:11:06.983Z,11.58
2024-02-03T16:13:33.909Z,11.79
2024-02-03T16:16:00.885Z,11.66
2024-02-03T16:18:28.279Z,12.07
2024-02-03T16:20:55.477Z,12.07
2024-02-03T16:23:22.078Z,11.43
2024-02-03T16:25:48.835Z,11.40
2024-02-03T16:28:15.840Z,11.54
2024-02-03T16:30:43.017Z,11.87
2024-02-03T16:33:12.067Z,11.24
2024-02-03T16:35:39.699Z,10.92
2024-02-03T16:38:06.680Z,11.74
2024-02-03T16:40:33.662Z,11.81
2024-02-03T16:43:04.411Z,11.95
2024-02-03T16:45:31.240Z,11.95
2024-02-03T16:47:58.224Z,11.21
2024-02-03T16:50:25.164Z,10.73
2024-02-03T16:52:51.978Z,11.57
2024-02-03T16:55:19.119Z,11.79
2024-02-03T16:57:45.898Z,11.58
2024-02-03T17:00:16.541Z,10.89
2024-02-03T17:02:44.084Z,11.59
2024-02-03T17:05:13.577Z,11.77
2024-02-03T17:07:40.546Z,11.50
2024-02-03T17:10:09.949Z,11.74
2024-02-03T17:12:36.801Z,11.72
2024-02-03T17:15:03.967Z,11.95
2024-02-03T17:17:33.512Z,11.70
2024-02-03T17:20:00.523Z,11.90
2024-02-03T17:22:27.455Z,10.93
2024-02-03T17:24:55.546Z,10.84
2024-02-03T17:27:22.414Z,11.14
2024-02-03T17:29:50.118Z,11.10
2024-02-03T17:32:19.708Z,11.67
2024-02-03T17:34:46.668Z,11.22
2024-02-03T17:37:13.638Z,11.13
2024-02-03T17:39:40.474Z,11.22
2024-02-03T17:42:07.313Z,11.22
2024-02-03T17:44:36.027Z,11.34
2024-02-03T17:47:02.887Z,11.45
2024-02-03T17:49:29.800Z,11.85
2024-02-03T17:51:57.618Z,11.98
2024-02-03T17:54:24.803Z,11.99
2024-02-03T17:56:51.578Z,12.07
2024-02-03T17:59:21.473Z,11.30
2024-02-03T18:01:49.718Z,11.84
2024-02-03T18:04:19.999Z,11.84
2024-02-03T18:06:50.110Z,11.92
2024-02-03T18:09:19.235Z,12.03
2024-02-03T18:11:49.778Z,12.18
2024-02-03T18:14:16.790Z,11.85
2024-02-03T18:16:45.883Z,12.16
2024-02-03T18:19:20.990Z,11.87
2024-02-03T18:21:50.857Z,11.62
2024-02-03T18:24:38.450Z,11.42
2024-02-03T18:27:07.196Z,11.46
2024-02-03T18:29:45.541Z,11.01
2024-02-03T18:32:12.484Z,11.45
2024-02-03T18:34:39.302Z,11.34
2024-02-03T18:37:14.554Z,11.58
2024-02-03T18:39:41.472Z,11.58
2024-02-03T18:42:08.425Z,11.61
2024-02-03T18:44:35.137Z,11.45
2024-02-03T18:47:01.890Z,11.17
2024-02-03T18:49:29.388Z,11.34
2024-02-03T18:51:56.011Z,11.34
2024-02-03T18:54:23.692Z,11.23
2024-02-03T18:56:50.263Z,11.55
2024-02-03T18:59:16.794Z,11.14
2024-02-03T19:01:43.344Z,11.50
2024-02-03T19:04:10.845Z,11.58
2024-02-03T19:06:37.453Z,11.63
2024-02-03T19:09:05.109Z,11.74
2024-02-03T19:11:31.577Z,11.84
2024-02-03T19:13:58.079Z,11.90
2024-02-03T19:16:24.766Z,11.79
2024-02-03T19:18:51.616Z,11.42
2024-02-03T19:21:18.198Z,11.22
2024-02-03T19:23:44.667Z,11.39
2024-02-03T19:26:12.851Z,11.09
2024-02-03T19:28:41.291Z,11.01
2024-02-03T19:31:07.862Z,11.02
2024-02-03T19:33:34.533Z,11.22
2024-02-03T19:36:01.083Z,10.89
2024-02-03T19:38:27.520Z,10.80
2024-02-03T19:40:54.384Z,10.68
2024-02-03T19:43:20.860Z,10.98
2024-02-03T19:45:47.520Z,10.71
2024-02-03T19:48:14.310Z,10.99
2024-02-03T19:50:41.155Z,11.27
2024-02-03T19:53:08.319Z,11.27
2024-02-03T19:55:35.241Z,11.14
2024-02-03T19:58:02.401Z,11.34
2024-02-03T20:00:29.187Z,11.46
2024-02-03T20:02:55.931Z,11.47
2024-02-03T20:05:22.623Z,11.36
2024-02-03T20:07:49.387Z,11.36
2024-02-03T20:10:18.161Z,11.48
2024-02-03T20:12:44.828Z,11.11
2024-02-03T20:15:12.659Z,10.91
2024-02-03T20:17:41.130Z,11.24
2024-02-03T20:20:08.236Z,11.20
2024-02-03T20:22:35.220Z,11.30
2024-02-03T20:25:02.197Z,11.21
2024-02-03T20:27:28.983Z,11.41
2024-02-03T20:29:55.790Z,10.88
2024-02-03T20:32:22.351Z,11.14
2024-02-03T20:34:49.067Z,10.98
2024-02-03T20:37:16.057Z,10.25
2024-02-03T20:39:45.780Z,10.62
2024-02-03T20:42:12.305Z,10.80
2024-02-03T20:44:38.832Z,10.62
2024-02-03T20:47:06.229Z,10.65
2024-02-03T20:49:33.063Z,10.28
2024-02-03T20:52:00.431Z,10.49
2024-02-03T20:54:27.090Z,10.33
2024-02-03T20:56:53.698Z,9.55
2024-02-03T20:59:20.364Z,9.48
2024-02-03T21:01:46.924Z,9.37
2024-02-03T21:04:14.180Z,9.59
2024-02-03T21:06:41.388Z,9.27
2024-02-03T21:09:15.213Z,9.46
2024-02-03T21:11:42.581Z,9.64
2024-02-03T21:14:09.342Z,9.69
2024-02-03T21:16:36.565Z,9.31
2024-02-03T21:19:03.832Z,9.09
2024-02-03T21:21:38.700Z,9.16
2024-02-03T21:24:05.990Z,8.92
2024-02-03T21:26:32.644Z,9.07
2024-02-03T21:28:59.345Z,8.90
2024-02-03T21:31:27.012Z,8.80
2024-02-03T21:33:54.236Z,8.94
2024-02-03T21:36:21.462Z,8.89
2024-02-03T21:38:49.170Z,9.14
2024-02-03T21:41:16.293Z,8.82
2024-02-03T21:43:42.779Z,8.75
2024-02-03T21:46:09.373Z,8.87
2024-02-03T21:48:36.027Z,8.58
2024-02-03T21:51:02.637Z,9.05
2024-02-03T21:53:29.211Z,9.09
2024-02-03T21:55:57.071Z,8.84
2024-02-03T21:58:23.605Z,8.49
2024-02-03T22:00:52.231Z,8.85
2024-02-03T22:03:19.226Z,9.11
2024-02-03T22:05:46.196Z,8.85
2024-02-03T22:08:13.659Z,8.75
2024-02-03T22:10:40.300Z,8.68
2024-02-03T22:13:07.221Z,8.85
2024-02-03T22:15:34.346Z,8.88
2024-02-03T22:18:01.352Z,9.19
2024-02-03T22:20:27.969Z,9.40
2024-02-03T22:22:54.541Z,9.39
2024-02-03T22:25:21.032Z,9.98
2024-02-03T22:27:47.602Z,10.10
2024-02-03T22:30:15.347Z,9.64
2024-02-03T22:32:42.276Z,9.53
2024-02-03T22:35:10.055Z,9.59
2024-02-03T22:37:38.515Z,9.28
2024-02-03T22:40:06.294Z,9.02
2024-02-03T22:42:32.983Z,9.36
2024-02-03T22:44:59.579Z,9.22
2024-02-03T22:47:26.143Z,9.02
2024-02-03T22:49:53.189Z,9.27
2024-02-03T22:52:19.930Z,9.40
2024-02-03T22:54:46.428Z,9.01
2024-02-03T22:57:12.960Z,9.12
2024-02-03T22:59:39.503Z,9.01
2024-02-03T23:02:06.316Z,8.76
2024-02-03T23:07:53.481Z,8.87
2024-02-03T23:10:20.242Z,8.61
2024-02-03T23:12:49.674Z,9.18
2024-02-03T23:15:16.512Z,8.72
2024-02-03T23:17:44.738Z,8.90
2024-02-03T23:20:13.041Z,9.19
2024-02-03T23:22:43.328Z,8.76
2024-02-03T23:25:11.300Z,9.31
2024-02-03T23:29:30.339Z,9.26
2024-02-03T23:31:08.343Z,9.16
2024-02-03T23:33:39.580Z,8.79
2024-02-03T23:36:07.053Z,9.17
2024-02-03T23:38:33.631Z,9.19
2024-02-03T23:41:00.838Z,9.25
2024-02-03T23:43:27.820Z,9.19
2024-02-03T23:45:54.326Z,9.37
2024-02-03T23:48:20.928Z,9.27
2024-02-03T23:50:47.778Z,9.44
2024-02-03T23:53:16.257Z,9.67
2024-02-03T23:55:43.768Z,9.81
2024-02-03T23:58:10.720Z,9.37
